Time;durP1;ratioP1;P1;durP2;ratioP2;P2;SDS_P1;SDS_P2;PMS_P1;PMS_P2;Temp;Humidity;BMP_temperature;BMP_pressure;BME280_temperature;BME280_humidity;BME280_pressure;Samples;Min_cycle;Max_cycle;Signal;HPM_P1;HPM_P2
2022/06/11 00:01:29;;;;;;;;;;;;;;;26.79;39.51;100187.66;5055168;28;1224;-43
2022/06/11 00:03:55;;;;;;;;;;;;;;;26.81;39.56;100196.38;5056305;28;1080;-44
2022/06/11 00:06:20;;;;;;;;;;;;;;;26.81;40.41;100190.97;5052240;28;1009;-44
2022/06/11 00:08:46;;;;;;;;;;;;;;;26.81;39.82;100195.56;5052465;28;1059;-43
2022/06/11 00:11:11;;;;;;;;;;;;;;;26.71;40.27;100196.72;5055875;28;1057;-43
2022/06/11 00:13:37;;;;;;;;;;;;;;;26.76;40.30;100196.13;5056867;28;953;-43
2022/06/11 00:16:02;;;;;;;;;;;;;;;26.75;40.42;100199.88;5055214;28;1969;-43
2022/06/11 00:18:28;;;;;;;;;;;;;;;26.73;40.62;100202.75;5055903;28;958;-44
2022/06/11 00:20:53;;;;;;;;;;;;;;;26.81;40.58;100201.78;5054160;28;1100;-43
2022/06/11 00:23:18;;;;;;;;;;;;;;;26.74;40.63;100214.41;5054151;28;1199;-43
2022/06/11 00:25:44;;;;;;;;;;;;;;;26.77;40.83;100206.75;5055322;28;1064;-44
2022/06/11 00:28:09;;;;;;;;;;;;;;;26.74;40.73;100203.59;5037808;28;1232;-43
2022/06/11 00:30:35;;;;;;;;;;;;;;;26.75;40.96;100211.50;5049393;28;883;-43
2022/06/11 00:33:00;;;;;;;;;;;;;;;26.71;40.82;100202.09;5050053;28;1033;-44
2022/06/11 00:35:26;;;;;;;;;;;;;;;26.76;40.90;100196.13;5051128;28;1894;-43
2022/06/11 00:37:51;;;;;;;;;;;;;;;26.80;40.91;100196.56;5054597;28;997;-43
2022/06/11 00:40:17;;;;;;;;;;;;;;;26.87;40.61;100197.47;5024285;28;1113;-43
2022/06/11 00:42:44;;;;;;;;;;;;;;;26.89;40.73;100198.94;5047461;28;1017;-43
2022/06/11 00:45:16;;;;;;;;;;;;;;;26.96;40.55;100195.47;5055571;28;1211;-43
2022/06/11 00:47:41;;;;;;;;;;;;;;;27.10;40.08;100197.28;5055770;28;1140;-43
2022/06/11 00:50:27;;;;;;;;;;;;;;;27.24;40.11;100203.59;5038012;28;1464;-43
2022/06/11 00:52:52;;;;;;;;;;;;;;;27.31;39.78;100200.94;5036166;28;1318;-44
2022/06/11 00:55:22;;;;;;;;;;;;;;;27.07;40.18;100200.38;5053949;28;1949;-43
2022/06/11 00:57:47;;;;;;;;;;;;;;;27.06;40.46;100201.38;5051955;28;1160;-43
2022/06/11 01:00:15;;;;;;;;;;;;;;;27.04;40.51;100203.47;5055679;28;842;-44
2022/06/11 01:02:41;;;;;;;;;;;;;;;27.23;40.48;100201.94;5053360;28;1069;-43
2022/06/11 01:05:07;;;;;;;;;;;;;;;27.14;40.44;100195.84;5054169;28;1033;-43
2022/06/11 01:07:38;;;;;;;;;;;;;;;27.10;40.84;100196.44;5053493;28;1156;-43
2022/06/11 01:10:04;;;;;;;;;;;;;;;27.22;40.61;100204.84;5055137;28;1006;-43
2022/06/11 01:12:48;;;;;;;;;;;;;;;27.22;41.11;100200.28;5053017;28;977;-43
2022/06/11 01:15:28;;;;;;;;;;;;;;;27.16;41.17;100200.22;5048434;28;1949;-43
2022/06/11 01:17:56;;;;;;;;;;;;;;;27.13;40.92;100196.03;5035584;28;1148;-43
2022/06/11 01:20:41;;;;;;;;;;;;;;;27.10;41.05;100196.44;5053474;28;1065;-43
2022/06/11 01:23:09;;;;;;;;;;;;;;;27.14;40.69;100195.84;5053568;28;1155;-43
2022/06/11 01:25:35;;;;;;;;;;;;;;;27.16;40.97;100192.13;5055391;28;1433;-43
2022/06/11 01:28:19;;;;;;;;;;;;;;;27.13;41.07;100196.03;5046892;28;954;-44
2022/06/11 01:30:53;;;;;;;;;;;;;;;27.10;40.65;100196.44;5054522;28;1088;-43
2022/06/11 01:33:24;;;;;;;;;;;;;;;27.18;40.65;100192.75;5037632;28;997;-43
2022/06/11 01:35:57;;;;;;;;;;;;;;;27.17;40.49;100186.53;5034172;28;1898;-43
2022/06/11 01:38:25;;;;;;;;;;;;;;;27.17;40.87;100188.38;5030402;28;1168;-43
2022/06/11 01:41:11;;;;;;;;;;;;;;;27.21;40.43;100192.38;5055068;28;1155;-43
2022/06/11 01:43:37;;;;;;;;;;;;;;;27.25;40.71;100193.63;5051110;28;1416;-44
2022/06/11 01:46:04;;;;;;;;;;;;;;;27.19;40.88;100200.69;5052708;28;1069;-43
2022/06/11 01:48:30;;;;;;;;;;;;;;;27.19;40.79;100206.06;5054781;28;1223;-44
2022/06/11 01:51:11;;;;;;;;;;;;;;;27.18;40.57;100209.78;5055556;28;1392;-43
2022/06/11 01:53:36;;;;;;;;;;;;;;;27.22;40.70;100200.28;5028991;28;1272;-43
2022/06/11 01:56:04;;;;;;;;;;;;;;;27.28;40.42;100190.53;5044650;28;1914;-43
2022/06/11 01:58:33;;;;;;;;;;;;;;;27.20;40.46;100174.47;5050637;28;981;-43
2022/06/11 02:00:58;;;;;;;;;;;;;;;27.21;40.16;100174.28;5049486;28;985;-43
2022/06/11 02:03:23;;;;;;;;;;;;;;;27.28;40.70;100168.94;5052672;28;1013;-43
2022/06/11 02:06:08;;;;;;;;;;;;;;;27.24;40.58;100182.00;5051240;28;1183;-43
2022/06/11 02:08:51;;;;;;;;;;;;;;;27.20;41.00;100188.81;5053735;28;1053;-44
2022/06/11 02:11:35;;;;;;;;;;;;;;;27.19;40.96;100189.88;5054814;28;986;-43
2022/06/11 02:14:12;;;;;;;;;;;;;;;27.21;40.46;100184.28;5045327;28;1943;-43
2022/06/11 02:16:37;;;;;;;;;;;;;;;27.21;40.87;100185.09;5052094;28;1005;-43
2022/06/11 02:19:05;;;;;;;;;;;;;;;27.21;40.47;100185.09;5053990;28;1052;-43
2022/06/11 02:21:32;;;;;;;;;;;;;;;27.18;40.57;100185.47;5054431;28;1171;-42
2022/06/11 02:23:58;;;;;;;;;;;;;;;27.25;40.34;100188.22;5048825;28;1028;-43
2022/06/11 02:26:30;;;;;;;;;;;;;;;27.28;40.40;100179.72;5053132;28;958;-43
2022/06/11 02:28:56;;;;;;;;;;;;;;;27.27;40.23;100188.88;5056501;28;1002;-43
2022/06/11 02:31:23;;;;;;;;;;;;;;;27.30;40.74;100185.78;5054247;28;1025;-43
2022/06/11 02:33:48;;;;;;;;;;;;;;;27.34;40.42;100178.94;5055630;28;1013;-43
2022/06/11 02:36:15;;;;;;;;;;;;;;;27.33;40.30;100176.44;5058351;28;1902;-43
2022/06/11 02:38:40;;;;;;;;;;;;;;;27.28;40.03;100173.50;5054055;28;859;-43
2022/06/11 02:41:10;;;;;;;;;;;;;;;27.29;40.12;100170.63;5058193;28;1033;-43
2022/06/11 02:43:35;;;;;;;;;;;;;;;27.34;40.10;100176.22;5057121;28;1191;-43
2022/06/11 02:46:40;;;;;;;;;;;;;;;27.16;39.85;100195.63;5058072;28;970;-43
2022/06/11 02:48:46;;;;;;;;;;;;;;;27.09;39.50;100197.47;5058298;28;1267;-44
2022/06/11 02:51:11;;;;;;;;;;;;;;;27.19;38.97;100195.28;5052801;28;839;-43
2022/06/11 02:53:37;;;;;;;;;;;;;;;27.11;39.00;100195.41;5053589;28;973;-44
2022/06/11 02:56:02;;;;;;;;;;;;;;;27.14;39.21;100197.72;5053670;28;1894;-44
2022/06/11 02:58:27;;;;;;;;;;;;;;;27.18;39.37;100209.78;5054731;28;985;-45
2022/06/11 03:00:53;;;;;;;;;;;;;;;27.16;38.96;100203.75;5054973;28;1058;-44
2022/06/11 03:03:18;;;;;;;;;;;;;;;27.14;38.91;100198.53;5057127;28;1100;-43
2022/06/11 03:05:44;;;;;;;;;;;;;;;27.17;39.12;100204.59;5054660;28;1060;-44
2022/06/11 03:08:09;;;;;;;;;;;;;;;27.11;39.08;100208.91;5054907;28;1068;-44
2022/06/11 03:10:35;;;;;;;;;;;;;;;27.09;38.73;100206.38;5036664;28;1256;-43
2022/06/11 03:13:00;;;;;;;;;;;;;;;26.88;39.68;100213.47;5055776;28;1298;-43
2022/06/11 03:15:25;;;;;;;;;;;;;;;26.64;42.36;100207.44;5055472;28;1897;-43
2022/06/11 03:17:51;;;;;;;;;;;;;;;26.39;43.82;100215.91;5056903;28;1183;-42
2022/06/11 03:20:16;;;;;;;;;;;;;;;26.49;43.54;100218.28;5051402;28;1025;-43
2022/06/11 03:22:42;;;;;;;;;;;;;;;25.83;45.66;100229.94;5051438;28;962;-42
2022/06/11 03:25:08;;;;;;;;;;;;;;;22.76;54.57;100221.44;5052847;28;1002;-43
2022/06/11 03:27:33;;;;;;;;;;;;;;;23.89;52.18;100228.84;5053690;28;1009;-43
2022/06/11 03:29:59;;;;;;;;;;;;;;;23.30;54.01;100235.34;5052904;28;1159;-43
2022/06/11 03:32:24;;;;;;;;;;;;;;;24.08;51.74;100240.19;5039747;28;1088;-43
2022/06/11 03:34:49;;;;;;;;;;;;;;;24.78;49.49;100243.00;5053810;28;1907;-42
2022/06/11 03:37:14;;;;;;;;;;;;;;;25.41;47.81;100241.97;5055962;28;994;-44
2022/06/11 03:39:40;;;;;;;;;;;;;;;22.35;57.17;100246.28;5055922;28;1077;-43
2022/06/11 03:42:05;;;;;;;;;;;;;;;22.37;57.79;100241.63;5056739;28;993;-43
2022/06/11 03:44:31;;;;;;;;;;;;;;;23.88;52.87;100251.34;5056160;28;1196;-43
2022/06/11 03:46:56;;;;;;;;;;;;;;;25.24;48.20;100249.38;5056752;28;1206;-42
2022/06/11 03:49:21;;;;;;;;;;;;;;;25.69;47.07;100248.63;5056855;28;1041;-42
2022/06/11 03:51:47;;;;;;;;;;;;;;;26.05;45.21;100244.31;5053943;28;1052;-43
2022/06/11 03:54:12;;;;;;;;;;;;;;;26.41;45.42;100254.31;5056565;28;1965;-43
2022/06/11 03:56:38;;;;;;;;;;;;;;;26.55;43.47;100259.00;5056809;28;1093;-43
2022/06/11 03:59:03;;;;;;;;;;;;;;;26.53;42.89;100260.06;5055985;28;1097;-43
2022/06/11 04:01:28;;;;;;;;;;;;;;;26.56;42.15;100266.91;5056438;28;1188;-44
2022/06/11 04:03:58;;;;;;;;;;;;;;;26.62;42.31;100252.69;5050717;28;986;-44
2022/06/11 04:06:25;;;;;;;;;;;;;;;26.68;42.00;100263.72;5056173;28;997;-42
2022/06/11 04:08:50;;;;;;;;;;;;;;;26.66;41.23;100274.69;5056760;28;1037;-43
2022/06/11 04:11:15;;;;;;;;;;;;;;;26.70;41.18;100281.38;5052549;28;1084;-42
2022/06/11 04:13:41;;;;;;;;;;;;;;;26.66;41.15;100280.09;5052014;28;1076;-43
2022/06/11 04:16:06;;;;;;;;;;;;;;;26.46;39.67;100290.69;5056023;28;1970;-43
2022/06/11 04:18:50;;;;;;;;;;;;;;;26.51;39.70;100302.56;5051196;28;1044;-43
2022/06/11 04:21:15;;;;;;;;;;;;;;;26.44;40.22;100301.66;5051175;28;1346;-43
2022/06/11 04:23:42;;;;;;;;;;;;;;;26.52;40.06;100308.78;5055750;28;970;-43
2022/06/11 04:26:08;;;;;;;;;;;;;;;26.47;39.90;100305.81;5056290;28;977;-44
2022/06/11 04:28:33;;;;;;;;;;;;;;;26.31;39.75;100306.84;5053428;28;1025;-43
2022/06/11 04:30:59;;;;;;;;;;;;;;;26.20;39.61;100305.47;5056626;28;978;-43
2022/06/11 04:33:25;;;;;;;;;;;;;;;26.21;39.98;100307.97;5053217;28;1166;-43
2022/06/11 04:35:50;;;;;;;;;;;;;;;26.25;40.36;100306.59;5055395;28;1901;-43
2022/06/11 04:38:15;;;;;;;;;;;;;;;26.39;40.04;100304.91;5054128;28;1120;-42
2022/06/11 04:40:41;;;;;;;;;;;;;;;26.46;39.86;100306.88;5046413;28;1049;-43
2022/06/11 04:43:06;;;;;;;;;;;;;;;26.53;40.18;100305.91;5049605;28;989;-44
2022/06/11 04:45:31;;;;;;;;;;;;;;;26.56;40.57;100317.34;5048370;28;983;-43
2022/06/11 04:47:56;;;;;;;;;;;;;;;26.69;40.49;100316.66;5051310;28;1208;-43
2022/06/11 04:50:22;;;;;;;;;;;;;;;26.71;40.74;100328.09;5053978;28;1259;-43
2022/06/11 04:52:47;;;;;;;;;;;;;;;26.85;41.07;100331.75;5037163;28;1137;-44
2022/06/11 04:55:14;;;;;;;;;;;;;;;26.90;41.32;100330.19;5055530;28;1914;-44
2022/06/11 04:57:39;;;;;;;;;;;;;;;26.76;42.01;100331.03;5052502;28;1040;-43
2022/06/11 05:00:05;;;;;;;;;;;;;;;26.84;42.49;100339.00;5055606;28;1041;-41
2022/06/11 05:02:30;;;;;;;;;;;;;;;26.73;41.84;100339.50;5044712;28;1196;-43
2022/06/11 05:04:56;;;;;;;;;;;;;;;26.75;41.21;100341.00;5050946;28;1068;-41
2022/06/11 05:07:21;;;;;;;;;;;;;;;26.67;40.54;100349.22;5048754;28;1100;-42
2022/06/11 05:09:47;;;;;;;;;;;;;;;26.60;40.35;100353.69;5052229;28;994;-42
2022/06/11 05:12:12;;;;;;;;;;;;;;;26.67;40.22;100357.31;5054785;28;1071;-44
2022/06/11 05:14:38;;;;;;;;;;;;;;;26.83;40.66;100358.09;5055422;28;1965;-43
2022/06/11 05:17:03;;;;;;;;;;;;;;;26.98;40.17;100349.94;5055936;28;993;-43
2022/06/11 05:19:28;;;;;;;;;;;;;;;27.02;40.81;100346.72;5054058;28;1118;-44
2022/06/11 05:21:54;;;;;;;;;;;;;;;26.95;40.27;100343.09;5055043;28;1049;-43
2022/06/11 05:24:22;;;;;;;;;;;;;;;27.07;40.98;100340.75;5049169;28;862;-41
2022/06/11 05:26:49;;;;;;;;;;;;;;;27.12;40.60;100350.97;5049657;28;1064;-43
2022/06/11 05:29:17;;;;;;;;;;;;;;;26.98;41.08;100350.78;5051835;28;1160;-43
2022/06/11 05:31:42;;;;;;;;;;;;;;;26.84;39.39;100343.59;5051896;28;1056;-43
2022/06/11 05:34:07;;;;;;;;;;;;;;;26.94;40.59;100365.72;5030922;28;1910;-41
2022/06/11 05:36:32;;;;;;;;;;;;;;;26.95;40.85;100366.53;5047713;28;795;-40
2022/06/11 05:38:58;;;;;;;;;;;;;;;26.95;41.61;100361.97;5051923;28;1057;-41
2022/06/11 05:41:23;;;;;;;;;;;;;;;27.14;41.19;100373.22;5051813;28;1120;-44
2022/06/11 05:43:48;;;;;;;;;;;;;;;27.09;41.14;100362.16;5053995;28;1088;-42
2022/06/11 05:46:15;;;;;;;;;;;;;;;27.18;40.54;100363.69;5035829;28;1318;-43
2022/06/11 05:48:43;;;;;;;;;;;;;;;26.98;40.80;100372.41;5036810;28;1192;-42
2022/06/11 05:51:11;;;;;;;;;;;;;;;27.19;40.82;100370.78;5034133;28;1192;-41
2022/06/11 05:53:36;;;;;;;;;;;;;;;27.20;40.72;100377.84;5050700;28;1001;-43
2022/06/11 05:56:01;;;;;;;;;;;;;;;27.20;41.16;100372.44;5053836;28;1918;-41
2022/06/11 05:58:38;;;;;;;;;;;;;;;27.12;40.28;100370.72;5048397;28;981;-41
2022/06/11 06:01:04;;;;;;;;;;;;;;;27.16;40.13;100371.13;5027168;28;1061;-41
2022/06/11 06:03:29;;;;;;;;;;;;;;;26.96;40.16;100369.03;5040156;28;1052;-42
2022/06/11 06:05:54;;;;;;;;;;;;;;;26.81;40.24;100371.78;5054613;28;974;-40
2022/06/11 06:08:20;;;;;;;;;;;;;;;26.76;40.10;100375.06;5058625;28;1219;-40
2022/06/11 06:10:45;;;;;;;;;;;;;;;26.75;39.42;100375.25;5054843;28;985;-41
2022/06/11 06:15:54;;;;;;;;;;;;;;;26.80;40.12;100385.47;5058258;28;1957;-42
2022/06/11 06:18:20;;;;;;;;;;;;;;;26.84;40.32;100379.50;5054940;28;1151;-42
2022/06/11 06:20:46;;;;;;;;;;;;;;;27.09;40.17;100379.16;5059162;28;1017;-41
2022/06/11 06:23:11;;;;;;;;;;;;;;;27.11;40.26;100379.00;5053759;28;1175;-41
2022/06/11 06:25:36;;;;;;;;;;;;;;;27.15;39.38;100385.69;5057715;28;1108;-41
2022/06/11 06:28:01;;;;;;;;;;;;;;;27.22;39.70;100389.28;5058458;28;766;-41
2022/06/11 06:30:27;;;;;;;;;;;;;;;27.23;39.81;100376.59;5055146;28;1144;-39
2022/06/11 06:32:52;;;;;;;;;;;;;;;27.18;40.36;100389.84;5054073;28;1009;-41
2022/06/11 06:35:17;;;;;;;;;;;;;;;27.27;39.89;100388.72;5056043;28;1909;-41
2022/06/11 06:37:43;;;;;;;;;;;;;;;27.35;39.88;100380.47;5056746;28;997;-41
2022/06/11 06:40:08;;;;;;;;;;;;;;;27.46;39.79;100378.28;5056579;28;1151;-41
2022/06/11 06:42:33;;;;;;;;;;;;;;;27.37;39.55;100374.88;5040030;28;1096;-42
2022/06/11 06:44:59;;;;;;;;;;;;;;;27.18;38.97;100379.03;5058176;28;1460;-41
2022/06/11 06:47:24;;;;;;;;;;;;;;;27.03;38.88;100382.63;5048420;28;1017;-41
2022/06/11 06:49:49;;;;;;;;;;;;;;;27.01;38.83;100384.66;5057564;28;1240;-41
2022/06/11 06:52:14;;;;;;;;;;;;;;;26.89;38.31;100385.16;5057989;28;1172;-41
2022/06/11 06:54:40;;;;;;;;;;;;;;;26.76;38.39;100383.16;5057798;28;1906;-41
2022/06/11 06:57:05;;;;;;;;;;;;;;;26.87;38.57;100384.53;5058085;28;1326;-41
2022/06/11 06:59:30;;;;;;;;;;;;;;;26.79;36.93;100387.34;5055675;28;1036;-41
2022/06/11 07:01:56;;;;;;;;;;;;;;;26.65;35.80;100384.50;5056405;28;1231;-40
2022/06/11 07:04:21;;;;;;;;;;;;;;;26.85;35.94;100386.59;5058087;28;1017;-42
2022/06/11 07:06:46;;;;;;;;;;;;;;;26.67;35.77;100386.16;5056852;28;1183;-42
2022/06/11 07:09:11;;;;;;;;;;;;;;;26.57;35.58;100387.28;5052022;28;977;-42
2022/06/11 07:11:37;;;;;;;;;;;;;;;26.65;35.68;100397.97;5057604;28;1001;-41
2022/06/11 07:14:02;;;;;;;;;;;;;;;26.74;35.57;100387.06;5053835;28;1099;-41
2022/06/11 07:16:29;;;;;;;;;;;;;;;26.99;36.15;100389.44;5053541;28;1894;-41
2022/06/11 07:18:56;;;;;;;;;;;;;;;27.12;36.64;100397.72;5037272;28;1057;-41
2022/06/11 07:21:22;;;;;;;;;;;;;;;27.22;37.02;100385.75;5037088;28;1196;-41
2022/06/11 07:24:08;;;;;;;;;;;;;;;27.32;37.10;100390.81;5039707;28;1025;-41
2022/06/11 07:26:36;;;;;;;;;;;;;;;27.34;37.37;100396.88;5057807;28;1128;-40
2022/06/11 07:29:04;;;;;;;;;;;;;;;27.41;37.22;100391.53;5051745;28;954;-42
2022/06/11 07:31:30;;;;;;;;;;;;;;;27.42;37.47;100394.03;5036453;28;1026;-41
2022/06/11 07:33:55;;;;;;;;;;;;;;;27.25;37.23;100388.06;5054832;28;1072;-41
2022/06/11 07:36:20;;;;;;;;;;;;;;;27.01;37.46;100395.44;5052754;28;1967;-41
2022/06/11 07:38:45;;;;;;;;;;;;;;;26.86;37.57;100399.03;5057928;28;1029;-40
2022/06/11 07:41:11;;;;;;;;;;;;;;;26.71;37.67;100392.84;5057163;28;1065;-41
2022/06/11 07:43:36;;;;;;;;;;;;;;;26.69;37.57;100392.19;5052151;28;1139;-41
2022/06/11 07:46:01;;;;;;;;;;;;;;;26.63;37.37;100388.38;5055448;28;1275;-41
2022/06/11 07:48:27;;;;;;;;;;;;;;;26.88;37.24;100402.38;5046952;28;1096;-41
2022/06/11 07:50:52;;;;;;;;;;;;;;;27.14;36.91;100398.34;5057007;28;974;-40
2022/06/11 07:53:18;;;;;;;;;;;;;;;27.30;37.17;100395.56;5056950;28;1286;-41
2022/06/11 07:55:44;;;;;;;;;;;;;;;27.37;37.01;100396.47;5053200;28;1897;-41
2022/06/11 07:58:10;;;;;;;;;;;;;;;27.42;36.88;100395.91;5056436;28;1152;-40
2022/06/11 08:00:36;;;;;;;;;;;;;;;27.44;37.13;100391.16;5056623;28;1092;-41
2022/06/11 08:03:02;;;;;;;;;;;;;;;27.47;36.95;100391.59;5052079;28;1020;-40
2022/06/11 08:05:28;;;;;;;;;;;;;;;27.51;37.33;100387.47;5048289;28;1250;-40
2022/06/11 08:07:53;;;;;;;;;;;;;;;27.56;37.34;100386.88;5057271;28;1037;-40
2022/06/11 08:10:20;;;;;;;;;;;;;;;27.58;37.37;100386.69;5051683;28;1021;-40
2022/06/11 08:12:45;;;;;;;;;;;;;;;27.53;37.13;100384.56;5054954;28;1056;-40
2022/06/11 08:15:11;;;;;;;;;;;;;;;27.23;37.12;100385.53;5056202;28;1901;-41
2022/06/11 08:17:37;;;;;;;;;;;;;;;27.01;36.89;100385.53;5055711;28;1038;-41
2022/06/11 08:20:03;;;;;;;;;;;;;;;26.90;36.78;100384.16;5038143;28;1331;-41
2022/06/11 08:22:28;;;;;;;;;;;;;;;26.88;36.79;100375.41;5054310;28;1227;-42
2022/06/11 08:24:53;;;;;;;;;;;;;;;26.82;36.52;100373.47;5053960;28;1045;-42
2022/06/11 08:27:19;;;;;;;;;;;;;;;26.88;36.94;100372.69;5051263;28;1076;-41
2022/06/11 08:29:44;;;;;;;;;;;;;;;27.20;36.63;100374.28;5054500;28;1014;-41
2022/06/11 08:32:10;;;;;;;;;;;;;;;27.37;36.60;100367.63;5053069;28;1061;-42
2022/06/11 08:34:39;;;;;;;;;;;;;;;27.46;36.78;100375.59;5056250;28;1898;-42
2022/06/11 08:37:04;;;;;;;;;;;;;;;27.50;36.87;100360.66;5056134;28;1009;-42
2022/06/11 08:39:30;;;;;;;;;;;;;;;27.53;36.70;100364.84;5055807;28;1021;-41
2022/06/11 08:41:59;;;;;;;;;;;;;;;27.54;36.81;100361.94;5051884;28;1358;-41
2022/06/11 08:44:24;;;;;;;;;;;;;;;27.57;37.04;100358.00;5056283;28;1029;-41
2022/06/11 08:46:50;;;;;;;;;;;;;;;27.63;36.67;100366.16;5037554;28;1172;-41
2022/06/11 08:49:34;;;;;;;;;;;;;;;27.43;36.24;100359.75;5033988;28;1092;-41
2022/06/11 08:52:04;;;;;;;;;;;;;;;27.12;36.56;100364.47;5051498;28;1142;-40
2022/06/11 08:54:31;;;;;;;;;;;;;;;27.02;36.36;100362.94;5052542;28;2323;-41
2022/06/11 08:57:00;;;;;;;;;;;;;;;26.93;36.09;100360.47;5036667;28;1071;-40
2022/06/11 08:59:44;;;;;;;;;;;;;;;26.94;35.80;100354.94;5055113;28;1057;-39
2022/06/11 09:02:29;;;;;;;;;;;;;;;27.33;36.58;100360.06;5055440;28;1274;-43
2022/06/11 09:05:13;;;;;;;;;;;;;;;27.42;36.36;100355.38;5038329;28;1088;-42
2022/06/11 09:07:48;;;;;;;;;;;;;;;27.43;36.14;100354.34;5050230;28;958;-43
2022/06/11 09:10:16;;;;;;;;;;;;;;;27.29;36.00;100353.41;5044008;28;961;-42
2022/06/11 09:13:02;;;;;;;;;;;;;;;27.14;35.85;100347.03;5045967;28;1124;-42
2022/06/11 09:15:45;;;;;;;;;;;;;;;27.17;35.24;100344.97;5051612;28;1906;-42
2022/06/11 09:18:14;;;;;;;;;;;;;;;27.08;35.56;100346.97;5055053;28;1097;-41
2022/06/11 09:20:58;;;;;;;;;;;;;;;27.07;35.58;100342.59;5054975;28;1152;-41
2022/06/11 09:23:30;;;;;;;;;;;;;;;27.25;35.85;100343.00;5049728;28;974;-41
2022/06/11 09:26:13;;;;;;;;;;;;;;;27.42;35.89;100345.41;5054721;28;1013;-41
2022/06/11 09:28:39;;;;;;;;;;;;;;;27.53;35.59;100346.75;5054012;28;1090;-42
2022/06/11 09:31:07;;;;;;;;;;;;;;;27.50;35.97;100345.28;5054779;28;1214;-43
2022/06/11 09:33:37;;;;;;;;;;;;;;;27.55;36.08;100342.00;5054801;28;1211;-43
2022/06/11 09:36:03;;;;;;;;;;;;;;;27.60;36.00;100338.69;5054966;28;1910;-42
2022/06/11 09:38:57;;;;;;;;;;;;;;;27.62;35.77;100332.06;5059019;28;1279;-44
2022/06/11 09:41:35;;;;;;;;;;;;;;;27.41;35.67;100332.13;4975606;28;1237;-42
2022/06/11 09:44:17;;;;;;;;;;;;;;;27.44;35.58;100329.03;5048663;28;1088;-43
2022/06/11 09:46:48;;;;;;;;;;;;;;;27.35;35.14;100331.84;5039882;28;1164;-41
2022/06/11 09:49:34;;;;;;;;;;;;;;;27.23;35.13;100328.84;5053175;28;1052;-42
2022/06/11 09:52:07;;;;;;;;;;;;;;;27.21;35.56;100327.38;5036653;28;1030;-43
2022/06/11 09:54:51;;;;;;;;;;;;;;;27.48;35.75;100317.63;5056504;28;1906;-42
2022/06/11 09:57:23;;;;;;;;;;;;;;;27.34;34.79;100318.56;5055059;28;1141;-42
2022/06/11 09:59:58;;;;;;;;;;;;;;;27.36;35.05;100313.81;5038137;28;1220;-39
2022/06/11 10:03:00;;;;;;;;;;;;;;;27.32;35.30;100301.69;5055108;28;1133;-39
2022/06/11 10:05:28;;;;;;;;;;;;;;;27.33;35.63;100303.34;5008976;28;1061;-38
2022/06/11 10:07:55;;;;;;;;;;;;;;;27.23;36.06;100296.44;5040968;28;1243;-39
2022/06/11 10:10:31;;;;;;;;;;;;;;;27.29;35.56;100288.59;5040888;28;1244;-39
2022/06/11 10:13:06;;;;;;;;;;;;;;;27.25;35.20;100285.44;5041027;28;1295;-40
2022/06/11 10:15:35;;;;;;;;;;;;;;;27.24;34.84;100287.28;5040957;28;1958;-39
2022/06/11 10:18:18;;;;;;;;;;;;;;;27.46;35.28;100273.75;5039861;28;1259;-41
2022/06/11 10:20:47;;;;;;;;;;;;;;;27.57;35.32;100271.53;5040665;28;1054;-41
2022/06/11 10:23:16;;;;;;;;;;;;;;;27.51;34.91;100270.44;5058215;28;1077;-39
2022/06/11 10:25:50;;;;;;;;;;;;;;;27.35;34.76;100266.19;5058589;28;1219;-39
2022/06/11 10:28:19;;;;;;;;;;;;;;;27.34;34.50;100264.53;5058123;28;1101;-39
2022/06/11 10:30:47;;;;;;;;;;;;;;;27.32;35.17;100266.59;5057121;28;1120;-41
2022/06/11 10:33:25;;;;;;;;;;;;;;;27.29;35.02;100256.19;5055997;28;1307;-43
2022/06/11 10:36:13;;;;;;;;;;;;;;;27.36;35.68;100255.19;5054056;28;1957;-43
2022/06/11 10:38:48;;;;;;;;;;;;;;;27.61;35.24;100256.63;5042945;28;1114;-42
2022/06/11 10:41:24;;;;;;;;;;;;;;;27.65;35.27;100249.78;5055940;28;1052;-43
2022/06/11 10:44:13;;;;;;;;;;;;;;;27.78;35.57;100256.34;5035524;28;1106;-42
2022/06/11 10:46:38;;;;;;;;;;;;;;;27.78;35.69;100254.44;5046610;28;1127;-43
2022/06/11 10:49:04;;;;;;;;;;;;;;;27.52;35.90;100255.94;5057129;28;1201;-43
2022/06/11 10:51:31;;;;;;;;;;;;;;;27.37;35.99;100251.47;5036331;28;911;-43
2022/06/11 10:54:15;;;;;;;;;;;;;;;27.26;36.08;100252.84;5040399;28;948;-43
2022/06/11 10:56:47;;;;;;;;;;;;;;;26.70;35.97;100167.22;5057591;28;929;-43
2022/06/11 10:59:19;;;;;;;;;;;;;;;27.24;36.20;100243.28;5054326;28;942;-43
2022/06/11 11:01:46;;;;;;;;;;;;;;;27.46;35.72;100244.03;5061641;28;1242;-42
2022/06/11 11:04:14;;;;;;;;;;;;;;;27.22;35.08;100240.78;5039501;28;889;-43
2022/06/11 11:06:41;;;;;;;;;;;;;;;27.06;34.36;100241.06;5064755;28;950;-43
2022/06/11 11:09:10;;;;;;;;;;;;;;;27.13;33.12;100231.97;5038871;28;857;-43
2022/06/11 11:11:42;;;;;;;;;;;;;;;27.06;32.16;100236.47;5043337;28;1063;-43
2022/06/11 11:14:08;;;;;;;;;;;;;;;26.95;31.22;100237.81;5036735;28;1140;-43
2022/06/11 11:16:36;;;;;;;;;;;;;;;26.35;30.34;100158.00;5057503;28;1957;-43
2022/06/11 11:19:11;;;;;;;;;;;;;;;26.80;29.91;100226.25;5053257;28;861;-42
2022/06/11 11:21:38;;;;;;;;;;;;;;;26.69;29.37;100228.47;5039341;28;1086;-43
2022/06/11 11:24:06;;;;;;;;;;;;;;;26.70;28.98;100229.28;5033736;28;1041;-43
2022/06/11 11:26:36;;;;;;;;;;;;;;;27.05;28.78;100229.41;5043417;28;1030;-43
2022/06/11 11:29:04;;;;;;;;;;;;;;;27.27;30.16;100232.06;5060666;28;1079;-43
2022/06/11 11:31:38;;;;;;;;;;;;;;;27.16;29.38;100225.34;5037618;28;1114;-43
2022/06/11 11:34:10;;;;;;;;;;;;;;;27.26;30.81;100225.00;5051407;28;1171;-43
2022/06/11 11:36:35;;;;;;;;;;;;;;;27.42;31.01;100231.13;5055881;28;1992;-43
2022/06/11 11:39:13;;;;;;;;;;;;;;;27.43;32.11;100228.22;5039792;28;1231;-43
2022/06/11 11:41:39;;;;;;;;;;;;;;;27.22;32.75;100231.84;5054960;28;1161;-43
2022/06/11 11:44:04;;;;;;;;;;;;;;;27.10;33.33;100236.94;5032013;28;1597;-42
2022/06/11 11:46:34;;;;;;;;;;;;;;;27.26;33.21;100233.94;5036164;28;1224;-42
2022/06/11 11:49:00;;;;;;;;;;;;;;;27.34;33.78;100235.66;5049195;28;1202;-43
2022/06/11 11:51:31;;;;;;;;;;;;;;;27.40;33.69;100239.44;5055135;28;1208;-43
2022/06/11 11:53:59;;;;;;;;;;;;;;;27.45;33.64;100244.25;5055080;28;1043;-42
2022/06/11 11:56:26;;;;;;;;;;;;;;;27.51;34.10;100240.75;5054855;28;1985;-43
2022/06/11 11:58:56;;;;;;;;;;;;;;;27.49;34.38;100240.13;5050885;28;1025;-43
2022/06/11 12:01:22;;;;;;;;;;;;;;;27.51;34.13;100233.47;5034967;28;1041;-42
2022/06/11 12:03:51;;;;;;;;;;;;;;;27.52;34.55;100231.63;5019408;28;1351;-43
2022/06/11 12:06:25;;;;;;;;;;;;;;;27.51;34.39;100230.78;5055189;28;1136;-43
2022/06/11 12:08:50;;;;;;;;;;;;;;;27.54;34.67;100228.72;5054607;28;975;-43
2022/06/11 12:11:27;;;;;;;;;;;;;;;27.54;34.88;100232.25;5055653;28;1153;-43
2022/06/11 12:13:54;;;;;;;;;;;;;;;27.48;34.91;100220.38;5051669;28;938;-43
2022/06/11 12:16:26;;;;;;;;;;;;;;;27.51;34.62;100227.22;5052701;28;1944;-43
2022/06/11 12:18:53;;;;;;;;;;;;;;;27.59;34.89;100220.84;5048956;28;848;-43
2022/06/11 12:21:22;;;;;;;;;;;;;;;27.62;34.80;100217.75;5054345;28;994;-44
2022/06/11 12:23:55;;;;;;;;;;;;;;;27.62;35.07;100218.59;5036146;28;1172;-43
2022/06/11 12:26:21;;;;;;;;;;;;;;;27.65;35.12;100211.94;5037718;28;923;-44
2022/06/11 12:28:57;;;;;;;;;;;;;;;27.69;35.25;100210.56;5047131;28;1056;-44
2022/06/11 12:31:23;;;;;;;;;;;;;;;27.68;35.45;100206.16;5033788;28;970;-43
2022/06/11 12:33:48;;;;;;;;;;;;;;;27.68;35.46;100198.06;5047655;28;1207;-43
2022/06/11 12:36:19;;;;;;;;;;;;;;;27.69;35.57;100190.81;5035119;28;1961;-43
2022/06/11 12:38:51;;;;;;;;;;;;;;;27.65;35.34;100190.31;5053226;28;1160;-43
2022/06/11 12:41:16;;;;;;;;;;;;;;;27.68;35.90;100187.25;5055781;28;1219;-43
2022/06/11 12:43:45;;;;;;;;;;;;;;;27.75;35.79;100179.19;5055097;28;1255;-43
2022/06/11 12:46:16;;;;;;;;;;;;;;;27.75;36.17;100176.47;5053499;28;1212;-44
2022/06/11 12:48:50;;;;;;;;;;;;;;;27.76;36.32;100172.72;5055709;28;1295;-43
2022/06/11 12:51:15;;;;;;;;;;;;;;;27.75;36.36;100177.31;5053186;28;1204;-43
2022/06/11 12:53:59;;;;;;;;;;;;;;;27.78;36.70;100167.16;5055797;28;1278;-43
2022/06/11 12:56:34;;;;;;;;;;;;;;;27.79;36.42;100175.06;5055605;28;1981;-43
2022/06/11 12:59:17;;;;;;;;;;;;;;;27.80;36.72;100168.59;5054633;28;1069;-43